Norton, Massachusetts
Current Conditions -  °F | °C
As of 1:52 AM on Sunday 21 Dec 2014 (Local Time) from KTAN Reporting Station
Light Rain Light Rain  
Wind Chill: 35°   Ceiling: 500
Heat Index: 35°   Visibility: 6mi
Dew Point: 33°   Wind: 3mph
Humidity: 92%   Direction: 350°N
Pressure: 30.27"   Gusts: NA
Location:  41.97°N, 71.19°W
Report Text: KTAN 210652Z AUTO 35003KT 6SM -RA BR OVC005 02/01 A3027 RMK AO2 UPE0558B04E11RAB11 SLP249 P0001 T00170006
Loading
Personal Weather Stations






























Interactive Weather Map New forecast layout! Learn more

10-Day Weather Forecast

Advertisements
Track Severe Weather on mobile